Westerdam — PINX — position and weather

sailwx.info

Track history (hours):
 
Tides and Currents Weather Stations Pressure Air Temp Water Temp Dewpoint Dewpoint Depression Visibility Wind Speed Wind Dir Waves Ship Positions

Westerdam

Operator: Holland America Line

Last reported at 2020-Oct-01 05:28 UTC. Time now 2020-Oct-01 07:53 UTC.
Position N 50°27' W 003°25'.

Type: Passenger vessel. MMSI: 244128000.

Date/timePositionNaut miles runAvg speedWind from/ knotsBaromVisibWave heightAir tempDewpointWater temp
2020-Oct-01 05:28N 50°27' W 003°25'0 0.0
2020-Sep-30 22:28N 50°27' W 003°25'0 0.0
2020-Sep-30 21:28N 50°27' W 003°25'0 0.0
2020-Sep-30 14:58N 50°27' W 003°25'0 0.0
2020-Sep-30 12:58N 50°27' W 003°25'0 0.1
2020-Sep-30 09:58N 50°27' W 003°25'0 0.0
2020-Sep-30 05:58N 50°27' W 003°25'0 0.2
2020-Sep-30 05:28N 50°27' W 003°25'0 0.2
2020-Sep-30 04:58N 50°27' W 003°25'0 0.0
2020-Sep-30 02:58N 50°27' W 003°25'0 0.1
2020-Sep-30 02:28N 50°27' W 003°25'0 0.0
2020-Sep-29 23:28N 50°27' W 003°25'3 0.8
2020-Sep-29 20:00N 50°24' W 003°24'3 0.9 250 / 81016.010.8 14.0
2020-Sep-29 16:58N 50°27' W 003°25'0 0.1
2020-Sep-29 15:58N 50°27' W 003°25'0 0.0
2020-Sep-29 14:28N 50°27' W 003°25'0 0.1
2020-Sep-29 13:58N 50°27' W 003°25'0 0.0
2020-Sep-29 12:58N 50°27' W 003°25'0 0.0
2020-Sep-29 11:28N 50°27' W 003°25'0 0.0
2020-Sep-29 09:58N 50°27' W 003°25'0 0.0
2020-Sep-29 06:58N 50°27' W 003°25'0 0.0
2020-Sep-29 04:58N 50°27' W 003°25'0 0.0
2020-Sep-29 04:28N 50°27' W 003°25'0 0.0
2020-Sep-29 00:28N 50°27' W 003°25'0 0.0
2020-Sep-28 21:58N 50°27' W 003°25'0 0.0
2020-Sep-28 19:58N 50°27' W 003°25'0 0.0
2020-Sep-28 19:28N 50°27' W 003°25'3 5.9
2020-Sep-28 19:00N 50°24' W 003°24'3 5.2 240 / 181015.010.8 16.0
2020-Sep-28 18:28N 50°27' W 003°25'0 0.0
2020-Sep-28 17:28N 50°27' W 003°25'0 0.0
2020-Sep-28 16:58N 50°27' W 003°25'0 0.0
2020-Sep-28 15:58N 50°27' W 003°25'0 0.0
2020-Sep-28 13:58N 50°27' W 003°25'0 0.0
2020-Sep-28 11:58N 50°27' W 003°25'0 0.0
2020-Sep-28 11:28N 50°27' W 003°25'0 0.0
2020-Sep-28 10:58N 50°27' W 003°25'0 0.0
2020-Sep-28 10:28N 50°27' W 003°25'0 0.0
2020-Sep-28 08:28N 50°27' W 003°25'0 0.0
2020-Sep-28 07:28N 50°27' W 003°25'0 0.0
2020-Sep-28 02:58N 50°27' W 003°25'0 0.0
2020-Sep-28 01:28N 50°27' W 003°25'0 0.0
2020-Sep-28 00:58N 50°27' W 003°25'0 0.0
2020-Sep-27 21:58N 50°27' W 003°25'0 0.0
2020-Sep-27 19:58N 50°27' W 003°25'0 0.0
2020-Sep-27 18:58N 50°27' W 003°25'0 0.0
2020-Sep-27 16:58N 50°27' W 003°25'0 0.0
2020-Sep-27 13:58N 50°27' W 003°25'2 1.6
2020-Sep-27 13:00N 50°28' W 003°24'2 0.7
2020-Sep-27 09:58N 50°30' W 003°27'0 0.0
2020-Sep-27 07:28N 50°30' W 003°27'0 0.0
2020-Sep-27 02:58N 50°30' W 003°27'0 0.0
2020-Sep-26 22:58N 50°30' W 003°27'0 0.0
2020-Sep-26 21:58N 50°30' W 003°27'6 5.9
2020-Sep-26 21:00N 50°24' W 003°24'6 2.8 310 / 201012.0
2020-Sep-26 18:58N 50°30' W 003°27'0 0.0
2020-Sep-26 14:58N 50°30' W 003°27'0 0.0
2020-Sep-26 10:58N 50°30' W 003°26'0 0.0
2020-Sep-26 09:28N 50°30' W 003°27'0 0.0
2020-Sep-26 07:58N 50°30' W 003°27'0 0.1
2020-Sep-26 07:28N 50°30' W 003°26'0 0.0
2020-Sep-26 06:58N 50°30' W 003°26'0 0.0
2020-Sep-26 06:28N 50°30' W 003°26'0 0.0
2020-Sep-26 05:28N 50°30' W 003°26'0 0.0
2020-Sep-26 00:28N 50°30' W 003°26'0 0.0
2020-Sep-25 23:28N 50°30' W 003°26'0 0.0
2020-Sep-25 20:28N 50°30' W 003°26'612.3
2020-Sep-25 20:00N 50°24' W 003°24'611.0 300 / 221015.010.8 11.0
2020-Sep-25 19:28N 50°30' W 003°26'0 0.0
2020-Sep-25 14:28N 50°30' W 003°26'0 0.1
2020-Sep-25 13:58N 50°30' W 003°27'0 0.2
2020-Sep-25 13:28N 50°30' W 003°26'0 0.1
2020-Sep-25 08:28N 50°30' W 003°27'0 0.0
2020-Sep-25 07:28N 50°30' W 003°27'0 0.0
2020-Sep-25 06:58N 50°30' W 003°27'0 0.1
2020-Sep-25 05:58N 50°30' W 003°27'0 0.0
2020-Sep-25 03:58N 50°30' W 003°27'0 0.0
2020-Sep-25 00:28N 50°30' W 003°27'0 0.0
2020-Sep-24 16:58N 50°30' W 003°27'0 0.1
2020-Sep-24 15:58N 50°30' W 003°27'0 0.0
2020-Sep-24 15:31N 50°30' W 003°27'0 0.0
2020-Sep-24 13:58N 50°30' W 003°27'0 0.0
2020-Sep-24 07:31N 50°30' W 003°27'4 4.3
2020-Sep-24 06:31N 50°29' W 003°20'9 8.5
2020-Sep-24 05:31N 50°24' W 003°09'20 7.9
2020-Sep-24 02:59N 50°18' W 002°39'5 8.4
2020-Sep-24 02:26N 50°16' W 002°33'14 9.6
2020-Sep-24 01:00N 50°12' W 002°12'32 8.3 220 / 331000.610.8 14.4 17.1
2020-Sep-23 21:08N 50°24' W 001°26'1210.9
2020-Sep-23 20:00N 50°24' W 001°06'61150.3 290 / 301000.010.8 15.0
2020-Sep-23 19:59N 50°30' W 001°08'5 8.9
2020-Sep-23 19:25N 50°32' W 001°01'0 9.3
2020-Sep-23 19:24N 50°32' W 001°01'4 9.6
2020-Sep-23 19:01N 50°36' W 000°58'24 6.0
2020-Sep-23 15:00N 50°53' W 001°24'0 0.0
2020-Sep-23 13:54N 50°53' W 001°24'0 0.0
2020-Sep-23 11:57N 50°53' W 001°24'0 0.0
2020-Sep-23 10:39N 50°53' W 001°24'0 0.0
2020-Sep-23 10:30N 50°53' W 001°24'67 4.6
2020-Sep-22 20:00N 49°54' W 002°12'4412.4 170 / 111007.010.8 17.0
2020-Sep-22 16:29N 49°42' W 003°17'1111.9
2020-Sep-22 15:34N 49°36' W 003°31'112.1
2020-Sep-22 15:29N 49°35' W 003°32'510.9
2020-Sep-22 15:00N 49°30' W 003°30'2613.2 250 / 121009.610.8 16.7 16.2
2020-Sep-22 13:00N 49°18' W 004°06'1313.2 200 / 81011.0 2.2 15.0 14.9
2020-Sep-22 12:00N 49°12' W 004°24'2311.5 200 / 91011.1 0.1 15.0 14.5
2020-Sep-22 10:00N 49°00' W 004°54'330.4 200 / 81012.0 0.3 15.0
2020-Sep-22 09:54N 49°02' W 004°57'410.6
2020-Sep-22 09:30N 48°60' W 005°03'3911.2
2020-Sep-22 06:00N 48°30' W 005°42'2210.7 270 / 181012.710.8 16.7 17.6
2020-Sep-22 03:58N 48°14' W 006°03'511.6
2020-Sep-22 03:30N 48°09' W 006°07'917.5
2020-Sep-22 03:00N 48°00' W 006°06'2210.8 250 / 151014.310.8 17.0 17.8
2020-Sep-22 01:00N 47°42' W 006°24'4711.7 240 / 91015.610.8 16.7 17.9
2020-Sep-21 21:00N 47°00' W 006°54'2713.5 040 / 81017.310.8 17.3 18.8
2020-Sep-21 19:00N 46°36' W 007°12'10311.4 270 / 101017.010.8 19.0
2020-Sep-21 10:00N 45°06' W 008°24'   280 / 51019.010.8 20.0
Track history (hours):
 
Tides and Currents Weather Stations Pressure Air Temp Water Temp Dewpoint Dewpoint Depression Visibility Wind Speed Wind Dir Waves Ship Positions

Westerdam

Operator: Holland America Line

Last reported at 2020-Oct-01 05:28 UTC. Time now 2020-Oct-01 07:53 UTC.
Position N 50°27' W 003°25'.

Type: Passenger vessel. MMSI: 244128000.

Date/timePositionNaut miles runAvg speedWind from/ knotsBaromVisibWave heightAir tempDewpointWater temp
2020-Oct-01 05:28N 50°27' W 003°25'0 0.0
2020-Sep-30 22:28N 50°27' W 003°25'0 0.0
2020-Sep-30 21:28N 50°27' W 003°25'0 0.0
2020-Sep-30 14:58N 50°27' W 003°25'0 0.0
2020-Sep-30 12:58N 50°27' W 003°25'0 0.1
2020-Sep-30 09:58N 50°27' W 003°25'0 0.0
2020-Sep-30 05:58N 50°27' W 003°25'0 0.2
2020-Sep-30 05:28N 50°27' W 003°25'0 0.2
2020-Sep-30 04:58N 50°27' W 003°25'0 0.0
2020-Sep-30 02:58N 50°27' W 003°25'0 0.1
2020-Sep-30 02:28N 50°27' W 003°25'0 0.0
2020-Sep-29 23:28N 50°27' W 003°25'3 0.8
2020-Sep-29 20:00N 50°24' W 003°24'3 0.9 250 / 81016.010.8 14.0
2020-Sep-29 16:58N 50°27' W 003°25'0 0.1
2020-Sep-29 15:58N 50°27' W 003°25'0 0.0
2020-Sep-29 14:28N 50°27' W 003°25'0 0.1
2020-Sep-29 13:58N 50°27' W 003°25'0 0.0
2020-Sep-29 12:58N 50°27' W 003°25'0 0.0
2020-Sep-29 11:28N 50°27' W 003°25'0 0.0
2020-Sep-29 09:58N 50°27' W 003°25'0 0.0
2020-Sep-29 06:58N 50°27' W 003°25'0 0.0
2020-Sep-29 04:58N 50°27' W 003°25'0 0.0
2020-Sep-29 04:28N 50°27' W 003°25'0 0.0
2020-Sep-29 00:28N 50°27' W 003°25'0 0.0
2020-Sep-28 21:58N 50°27' W 003°25'0 0.0
2020-Sep-28 19:58N 50°27' W 003°25'0 0.0
2020-Sep-28 19:28N 50°27' W 003°25'3 5.9
2020-Sep-28 19:00N 50°24' W 003°24'3 5.2 240 / 181015.010.8 16.0
2020-Sep-28 18:28N 50°27' W 003°25'0 0.0
2020-Sep-28 17:28N 50°27' W 003°25'0 0.0
2020-Sep-28 16:58N 50°27' W 003°25'0 0.0
2020-Sep-28 15:58N 50°27' W 003°25'0 0.0
2020-Sep-28 13:58N 50°27' W 003°25'0 0.0
2020-Sep-28 11:58N 50°27' W 003°25'0 0.0
2020-Sep-28 11:28N 50°27' W 003°25'0 0.0
2020-Sep-28 10:58N 50°27' W 003°25'0 0.0
2020-Sep-28 10:28N 50°27' W 003°25'0 0.0
2020-Sep-28 08:28N 50°27' W 003°25'0 0.0
2020-Sep-28 07:28N 50°27' W 003°25'0 0.0
2020-Sep-28 02:58N 50°27' W 003°25'0 0.0
2020-Sep-28 01:28N 50°27' W 003°25'0 0.0
2020-Sep-28 00:58N 50°27' W 003°25'0 0.0
2020-Sep-27 21:58N 50°27' W 003°25'0 0.0
2020-Sep-27 19:58N 50°27' W 003°25'0 0.0
2020-Sep-27 18:58N 50°27' W 003°25'0 0.0
2020-Sep-27 16:58N 50°27' W 003°25'0 0.0
2020-Sep-27 13:58N 50°27' W 003°25'2 1.6
2020-Sep-27 13:00N 50°28' W 003°24'2 0.7
2020-Sep-27 09:58N 50°30' W 003°27'0 0.0
2020-Sep-27 07:28N 50°30' W 003°27'0 0.0
2020-Sep-27 02:58N 50°30' W 003°27'0 0.0
2020-Sep-26 22:58N 50°30' W 003°27'0 0.0
2020-Sep-26 21:58N 50°30' W 003°27'6 5.9
2020-Sep-26 21:00N 50°24' W 003°24'6 2.8 310 / 201012.0
2020-Sep-26 18:58N 50°30' W 003°27'0 0.0
2020-Sep-26 14:58N 50°30' W 003°27'0 0.0
2020-Sep-26 10:58N 50°30' W 003°26'0 0.0
2020-Sep-26 09:28N 50°30' W 003°27'0 0.0
2020-Sep-26 07:58N 50°30' W 003°27'0 0.1
2020-Sep-26 07:28N 50°30' W 003°26'0 0.0
2020-Sep-26 06:58N 50°30' W 003°26'0 0.0
2020-Sep-26 06:28N 50°30' W 003°26'0 0.0
2020-Sep-26 05:28N 50°30' W 003°26'0 0.0
2020-Sep-26 00:28N 50°30' W 003°26'0 0.0
2020-Sep-25 23:28N 50°30' W 003°26'0 0.0
2020-Sep-25 20:28N 50°30' W 003°26'612.3
2020-Sep-25 20:00N 50°24' W 003°24'611.0 300 / 221015.010.8 11.0
2020-Sep-25 19:28N 50°30' W 003°26'0 0.0
2020-Sep-25 14:28N 50°30' W 003°26'0 0.1
2020-Sep-25 13:58N 50°30' W 003°27'0 0.2
2020-Sep-25 13:28N 50°30' W 003°26'0 0.1
2020-Sep-25 08:28N 50°30' W 003°27'0 0.0
2020-Sep-25 07:28N 50°30' W 003°27'0 0.0
2020-Sep-25 06:58N 50°30' W 003°27'0 0.1
2020-Sep-25 05:58N 50°30' W 003°27'0 0.0
2020-Sep-25 03:58N 50°30' W 003°27'0 0.0
2020-Sep-25 00:28N 50°30' W 003°27'0 0.0
2020-Sep-24 16:58N 50°30' W 003°27'0 0.1
2020-Sep-24 15:58N 50°30' W 003°27'0 0.0
2020-Sep-24 15:31N 50°30' W 003°27'0 0.0
2020-Sep-24 13:58N 50°30' W 003°27'0 0.0
2020-Sep-24 07:31N 50°30' W 003°27'4 4.3
2020-Sep-24 06:31N 50°29' W 003°20'9 8.5
2020-Sep-24 05:31N 50°24' W 003°09'20 7.9
2020-Sep-24 02:59N 50°18' W 002°39'5 8.4
2020-Sep-24 02:26N 50°16' W 002°33'14 9.6
2020-Sep-24 01:00N 50°12' W 002°12'32 8.3 220 / 331000.610.8 14.4 17.1
2020-Sep-23 21:08N 50°24' W 001°26'1210.9
2020-Sep-23 20:00N 50°24' W 001°06'61150.3 290 / 301000.010.8 15.0
2020-Sep-23 19:59N 50°30' W 001°08'5 8.9
2020-Sep-23 19:25N 50°32' W 001°01'0 9.3
2020-Sep-23 19:24N 50°32' W 001°01'4 9.6
2020-Sep-23 19:01N 50°36' W 000°58'24 6.0
2020-Sep-23 15:00N 50°53' W 001°24'0 0.0
2020-Sep-23 13:54N 50°53' W 001°24'0 0.0
2020-Sep-23 11:57N 50°53' W 001°24'0 0.0
2020-Sep-23 10:39N 50°53' W 001°24'0 0.0
2020-Sep-23 10:30N 50°53' W 001°24'67 4.6
2020-Sep-22 20:00N 49°54' W 002°12'4412.4 170 / 111007.010.8 17.0
2020-Sep-22 16:29N 49°42' W 003°17'1111.9
2020-Sep-22 15:34N 49°36' W 003°31'112.1
2020-Sep-22 15:29N 49°35' W 003°32'510.9
2020-Sep-22 15:00N 49°30' W 003°30'2613.2 250 / 121009.610.8 16.7 16.2
2020-Sep-22 13:00N 49°18' W 004°06'1313.2 200 / 81011.0 2.2 15.0 14.9
2020-Sep-22 12:00N 49°12' W 004°24'2311.5 200 / 91011.1 0.1 15.0 14.5
2020-Sep-22 10:00N 49°00' W 004°54'330.4 200 / 81012.0 0.3 15.0
2020-Sep-22 09:54N 49°02' W 004°57'410.6
2020-Sep-22 09:30N 48°60' W 005°03'3911.2
2020-Sep-22 06:00N 48°30' W 005°42'2210.7 270 / 181012.710.8 16.7 17.6
2020-Sep-22 03:58N 48°14' W 006°03'511.6
2020-Sep-22 03:30N 48°09' W 006°07'917.5
2020-Sep-22 03:00N 48°00' W 006°06'2210.8 250 / 151014.310.8 17.0 17.8
2020-Sep-22 01:00N 47°42' W 006°24'4711.7 240 / 91015.610.8 16.7 17.9
2020-Sep-21 21:00N 47°00' W 006°54'2713.5 040 / 81017.310.8 17.3 18.8
2020-Sep-21 19:00N 46°36' W 007°12'10311.4 270 / 101017.010.8 19.0
2020-Sep-21 10:00N 45°06' W 008°24'   280 / 51019.010.8 20.0

Dump ship's entire track history